createdAt,value
2022-10-26T00:00:32.210Z,86.16
2022-10-26T00:01:32.322Z,86.41
2022-10-26T00:02:32.251Z,86.37
2022-10-26T00:03:32.179Z,86.68
2022-10-26T00:04:32.167Z,86.71
2022-10-26T00:05:32.179Z,86.51
2022-10-26T00:06:32.154Z,86.37
2022-10-26T00:07:32.151Z,86.51
2022-10-26T00:08:32.127Z,86.51
2022-10-26T00:09:32.114Z,86.51
2022-10-26T00:10:32.115Z,86.41
2022-10-26T00:11:32.107Z,86.06
2022-10-26T00:12:32.080Z,86.71
2022-10-26T00:13:32.072Z,86.10
2022-10-26T00:14:32.059Z,85.90
2022-10-26T00:15:32.050Z,85.90
2022-10-26T00:16:32.045Z,85.49
2022-10-26T00:17:32.026Z,85.69
2022-10-26T00:18:32.023Z,85.60
2022-10-26T00:19:32.011Z,85.60
2022-10-26T00:20:32.004Z,85.39
2022-10-26T00:21:32.026Z,85.90
2022-10-26T00:22:32.012Z,85.49
2022-10-26T00:23:31.968Z,85.80
2022-10-26T00:24:31.951Z,85.49
2022-10-26T00:25:31.956Z,85.60
2022-10-26T00:26:31.930Z,85.60
2022-10-26T00:27:31.919Z,85.60
2022-10-26T00:28:31.908Z,85.49
2022-10-26T00:29:31.897Z,85.69
2022-10-26T00:30:31.903Z,85.49
2022-10-26T00:31:31.878Z,85.49
2022-10-26T00:32:31.896Z,85.63
2022-10-26T00:33:31.858Z,85.53
2022-10-26T00:34:31.851Z,85.74
2022-10-26T00:35:44.978Z,85.74
2022-10-26T00:36:32.818Z,85.53
2022-10-26T00:37:31.828Z,85.53
2022-10-26T00:38:31.802Z,85.49
2022-10-26T00:39:31.791Z,85.19
2022-10-26T00:40:31.776Z,85.22
2022-10-26T00:41:38.835Z,85.22
2022-10-26T00:42:31.755Z,85.13
2022-10-26T00:43:31.748Z,85.02
2022-10-26T00:44:36.065Z,85.02
2022-10-26T00:45:32.745Z,85.33
2022-10-26T00:46:31.723Z,85.49
2022-10-26T00:47:31.702Z,85.43
2022-10-26T00:48:31.699Z,85.84
2022-10-26T00:49:31.681Z,85.53
2022-10-26T00:50:31.668Z,84.72
2022-10-26T00:51:31.673Z,84.72
2022-10-26T00:52:31.648Z,84.82
2022-10-26T00:53:31.655Z,84.82
2022-10-26T00:54:31.625Z,85.13
2022-10-26T00:55:31.614Z,84.82
2022-10-26T00:56:31.621Z,84.92
2022-10-26T00:57:31.680Z,84.72
2022-10-26T00:58:31.581Z,84.72
2022-10-26T00:59:31.572Z,85.22
2022-10-26T01:00:31.567Z,85.13
2022-10-26T01:01:31.635Z,84.92
2022-10-26T01:02:31.548Z,84.72
2022-10-26T01:03:31.656Z,84.96
2022-10-26T01:04:31.519Z,84.00
2022-10-26T01:05:31.513Z,83.90
2022-10-26T01:06:31.506Z,83.33
2022-10-26T01:07:31.486Z,82.82
2022-10-26T01:08:31.476Z,82.61
2022-10-26T01:09:31.482Z,82.24
2022-10-26T01:10:31.453Z,81.23
2022-10-26T01:11:31.450Z,80.82
2022-10-26T01:12:31.435Z,80.24
2022-10-26T01:13:31.421Z,80.24
2022-10-26T01:14:31.410Z,80.44
2022-10-26T01:15:31.399Z,80.75
2022-10-26T01:16:31.400Z,80.58
2022-10-26T01:17:31.377Z,81.30
2022-10-26T01:18:31.371Z,81.10
2022-10-26T01:19:31.357Z,81.98
2022-10-26T01:20:31.367Z,81.37
2022-10-26T01:21:31.334Z,82.18
2022-10-26T01:22:31.326Z,82.18
2022-10-26T01:23:31.314Z,82.79
2022-10-26T01:24:31.306Z,82.89
2022-10-26T01:25:31.316Z,83.20
2022-10-26T01:26:31.301Z,83.30
2022-10-26T01:27:31.270Z,83.00
2022-10-26T01:28:31.265Z,83.10
2022-10-26T01:29:31.248Z,83.20
2022-10-26T01:30:31.238Z,83.20
2022-10-26T01:31:31.243Z,83.10
2022-10-26T01:32:31.218Z,82.69
2022-10-26T01:33:31.210Z,82.49
2022-10-26T01:34:31.200Z,82.69
2022-10-26T01:35:31.183Z,82.89
2022-10-26T01:37:31.164Z,82.42
2022-10-26T01:38:31.153Z,82.01
2022-10-26T01:39:31.144Z,82.01
2022-10-26T01:40:31.143Z,82.26
2022-10-26T01:41:31.136Z,82.46
2022-10-26T01:42:31.109Z,82.46
2022-10-26T01:43:31.100Z,82.67
2022-10-26T01:44:31.091Z,83.28
2022-10-26T01:45:31.087Z,83.59
2022-10-26T01:46:31.066Z,83.07
2022-10-26T01:47:31.054Z,83.59
2022-10-26T01:48:31.047Z,82.77
2022-10-26T01:49:31.033Z,83.18
2022-10-26T01:50:31.035Z,83.59
2022-10-26T01:51:31.014Z,82.87
2022-10-26T01:52:31.002Z,82.97
2022-10-26T01:53:30.994Z,82.56
2022-10-26T01:54:31.045Z,82.97
2022-10-26T01:55:30.976Z,82.97
2022-10-26T01:56:30.959Z,82.97
2022-10-26T01:57:30.964Z,83.18
2022-10-26T01:58:30.936Z,82.67
2022-10-26T01:59:30.924Z,83.38
2022-10-26T02:00:30.926Z,83.24
2022-10-26T02:01:30.925Z,83.18
2022-10-26T02:02:30.895Z,83.14
2022-10-26T02:03:30.901Z,82.87
2022-10-26T02:04:30.872Z,83.14
2022-10-26T02:05:30.878Z,82.73
2022-10-26T02:06:30.851Z,83.48
2022-10-26T02:07:30.845Z,83.48
2022-10-26T02:08:30.827Z,83.59
2022-10-26T02:09:30.816Z,83.18
2022-10-26T02:10:30.817Z,83.28
2022-10-26T02:11:30.797Z,84.20
2022-10-26T02:12:30.791Z,84.41
2022-10-26T02:13:30.792Z,84.36
2022-10-26T02:14:30.769Z,84.71
2022-10-26T02:15:30.774Z,84.81
2022-10-26T02:16:30.742Z,85.02
2022-10-26T02:17:30.731Z,84.91
2022-10-26T02:18:30.721Z,84.81
2022-10-26T02:19:30.718Z,84.81
2022-10-26T02:20:30.716Z,84.09
2022-10-26T02:21:30.692Z,84.34
2022-10-26T02:22:30.679Z,83.79
2022-10-26T02:23:30.667Z,83.89
2022-10-26T02:24:30.656Z,83.89
2022-10-26T02:25:30.657Z,84.24
2022-10-26T02:26:30.634Z,84.30
2022-10-26T02:27:30.623Z,84.71
2022-10-26T02:28:30.614Z,84.65
2022-10-26T02:29:30.641Z,84.55
2022-10-26T02:30:30.606Z,83.93
2022-10-26T02:31:30.581Z,83.93
2022-10-26T02:32:30.575Z,84.03
2022-10-26T02:33:30.559Z,84.14
2022-10-26T02:34:30.560Z,84.14
2022-10-26T02:35:30.540Z,84.14
2022-10-26T02:36:30.527Z,84.14
2022-10-26T02:37:30.517Z,83.93
2022-10-26T02:38:30.506Z,84.09
2022-10-26T02:39:30.503Z,84.03
2022-10-26T02:40:30.486Z,84.24
2022-10-26T02:41:30.475Z,83.89
2022-10-26T02:42:30.463Z,84.03
2022-10-26T02:44:30.455Z,84.44
2022-10-26T02:45:30.454Z,84.24
2022-10-26T02:46:30.420Z,84.44
2022-10-26T02:47:30.409Z,84.44
2022-10-26T02:48:30.397Z,84.41
2022-10-26T02:49:30.399Z,84.71
2022-10-26T02:50:30.392Z,84.85
2022-10-26T02:51:30.392Z,84.55
2022-10-26T02:52:30.358Z,85.22
2022-10-26T02:53:30.361Z,85.42
2022-10-26T02:54:30.336Z,85.63
2022-10-26T02:55:30.352Z,85.47
2022-10-26T02:56:30.315Z,85.22
2022-10-26T02:57:30.303Z,85.02
2022-10-26T02:58:30.292Z,84.91
2022-10-26T02:59:30.281Z,84.71
2022-10-26T03:00:30.279Z,84.41
2022-10-26T03:01:30.304Z,84.20
2022-10-26T03:02:30.311Z,84.24
2022-10-26T03:03:30.237Z,83.38
2022-10-26T03:04:30.238Z,82.46
2022-10-26T03:05:30.225Z,81.65
2022-10-26T03:06:30.206Z,81.27
2022-10-26T03:07:30.196Z,81.07
2022-10-26T03:08:30.192Z,81.17
2022-10-26T03:09:30.183Z,81.41
2022-10-26T03:10:30.166Z,81.51
2022-10-26T03:11:30.151Z,81.41
2022-10-26T03:12:30.145Z,81.72
2022-10-26T03:13:30.129Z,81.51
2022-10-26T03:14:30.128Z,81.72
2022-10-26T03:15:30.108Z,82.23
2022-10-26T03:16:30.100Z,82.43
2022-10-26T03:17:30.104Z,81.99
2022-10-26T03:18:30.078Z,82.64
2022-10-26T03:19:30.078Z,83.05
2022-10-26T03:20:30.080Z,82.84
2022-10-26T03:21:30.043Z,83.42
2022-10-26T03:22:30.033Z,83.52
2022-10-26T03:23:30.019Z,83.32
2022-10-26T03:24:30.025Z,83.52
2022-10-26T03:25:30.001Z,83.42
2022-10-26T03:26:30.016Z,83.42
2022-10-26T03:27:29.979Z,83.22
2022-10-26T03:28:29.979Z,83.42
2022-10-26T03:29:29.984Z,83.32
2022-10-26T03:30:29.946Z,83.83
2022-10-26T03:31:29.934Z,83.01
2022-10-26T03:32:29.949Z,83.56
2022-10-26T03:33:29.994Z,83.46
2022-10-26T03:34:29.904Z,83.22
2022-10-26T03:35:29.904Z,82.95
2022-10-26T03:36:29.882Z,83.87
2022-10-26T03:37:29.874Z,84.28
2022-10-26T03:38:29.864Z,83.87
2022-10-26T03:39:29.849Z,84.38
2022-10-26T03:40:29.853Z,84.17
2022-10-26T03:41:29.827Z,84.38
2022-10-26T03:42:29.823Z,84.28
2022-10-26T03:43:29.815Z,84.17
2022-10-26T03:44:29.801Z,84.14
2022-10-26T03:45:29.805Z,84.38
2022-10-26T03:46:29.779Z,83.83
2022-10-26T03:47:29.766Z,83.83
2022-10-26T03:48:29.786Z,83.93
2022-10-26T03:49:29.759Z,83.97
2022-10-26T03:50:29.772Z,83.87
2022-10-26T03:51:29.722Z,84.38
2022-10-26T03:52:29.716Z,84.38
2022-10-26T03:53:29.697Z,84.38
2022-10-26T03:54:29.701Z,84.24
2022-10-26T03:55:29.689Z,83.87
2022-10-26T03:56:29.668Z,83.73
2022-10-26T03:57:29.656Z,83.83
2022-10-26T03:58:29.654Z,83.83
2022-10-26T03:59:29.643Z,84.07
2022-10-26T04:00:29.625Z,83.93
2022-10-26T04:01:29.636Z,84.14
2022-10-26T04:02:29.629Z,84.44
2022-10-26T04:03:29.591Z,84.69
2022-10-26T04:04:29.673Z,84.89
2022-10-26T04:05:29.597Z,84.99
2022-10-26T04:06:29.560Z,85.20
2022-10-26T04:07:29.547Z,85.47
2022-10-26T04:08:29.539Z,85.30
2022-10-26T04:09:29.540Z,85.20
2022-10-26T04:10:29.516Z,85.16
2022-10-26T04:11:29.509Z,85.30
2022-10-26T04:12:29.493Z,85.06
2022-10-26T04:13:29.482Z,85.30
2022-10-26T04:14:29.471Z,85.88
2022-10-26T04:15:29.467Z,85.91
2022-10-26T04:16:32.545Z,85.77
2022-10-26T04:17:29.444Z,85.61
2022-10-26T04:18:29.428Z,85.36
2022-10-26T04:19:29.421Z,86.02
2022-10-26T04:20:29.459Z,85.77
2022-10-26T04:21:29.412Z,85.57
2022-10-26T04:22:29.388Z,85.20
2022-10-26T04:23:29.391Z,85.50
2022-10-26T04:24:29.366Z,85.97
2022-10-26T04:25:32.677Z,85.97
2022-10-26T04:26:29.347Z,85.81
2022-10-26T04:27:29.330Z,86.22
2022-10-26T04:28:29.320Z,85.88
2022-10-26T04:29:29.307Z,86.69
2022-10-26T04:30:29.310Z,87.00
2022-10-26T04:31:29.337Z,86.90
2022-10-26T04:32:29.284Z,87.45
2022-10-26T04:33:29.265Z,87.96
2022-10-26T04:34:29.279Z,88.02
2022-10-26T04:35:29.256Z,88.02
2022-10-26T04:36:29.232Z,87.82
2022-10-26T04:37:29.239Z,87.82
2022-10-26T04:38:29.213Z,88.64
2022-10-26T04:39:29.222Z,88.43
2022-10-26T04:40:29.214Z,88.18
2022-10-26T04:41:29.194Z,88.29
2022-10-26T04:42:29.167Z,88.39
2022-10-26T04:43:29.159Z,88.43
2022-10-26T04:44:29.148Z,88.59
2022-10-26T04:45:29.145Z,88.23
2022-10-26T04:46:29.125Z,88.53
2022-10-26T04:47:29.125Z,87.82
2022-10-26T04:48:29.131Z,87.00
2022-10-26T04:49:29.088Z,87.24
2022-10-26T04:50:29.092Z,85.97
2022-10-26T04:51:29.066Z,85.81
2022-10-26T04:52:29.057Z,85.81
2022-10-26T04:53:29.066Z,85.91
2022-10-26T04:54:29.035Z,85.91
2022-10-26T04:55:29.037Z,85.71
2022-10-26T04:56:29.013Z,85.71
2022-10-26T04:57:29.006Z,85.40
2022-10-26T04:58:29.025Z,86.02
2022-10-26T04:59:28.985Z,85.30
2022-10-26T05:00:28.990Z,84.99
2022-10-26T05:01:29.030Z,84.99
2022-10-26T05:02:29.194Z,84.89
2022-10-26T05:03:30.112Z,84.99
2022-10-26T05:04:28.927Z,85.30
2022-10-26T05:05:28.925Z,85.64
2022-10-26T05:06:28.904Z,85.50
2022-10-26T05:07:28.896Z,85.20
2022-10-26T05:08:28.891Z,85.71
2022-10-26T05:09:28.888Z,85.81
2022-10-26T05:10:28.877Z,85.91
2022-10-26T05:11:28.853Z,85.50
2022-10-26T05:12:28.841Z,85.20
2022-10-26T05:13:28.838Z,84.99
2022-10-26T05:14:28.846Z,84.99
2022-10-26T05:15:28.818Z,85.30
2022-10-26T05:16:28.797Z,85.20
2022-10-26T05:17:28.783Z,86.02
2022-10-26T05:18:28.777Z,86.02
2022-10-26T05:19:28.764Z,85.91
2022-10-26T05:20:28.764Z,85.61
2022-10-26T05:21:28.740Z,85.50
2022-10-26T05:22:28.731Z,86.02
2022-10-26T05:23:28.720Z,85.50
2022-10-26T05:24:28.707Z,85.50
2022-10-26T05:25:28.725Z,85.91
2022-10-26T05:26:28.742Z,85.64
2022-10-26T05:27:28.700Z,85.85
2022-10-26T05:28:28.664Z,86.02
2022-10-26T05:29:28.654Z,85.85
2022-10-26T05:30:28.653Z,85.30
2022-10-26T05:31:28.631Z,85.20
2022-10-26T05:32:28.619Z,85.55
2022-10-26T05:33:28.610Z,85.75
2022-10-26T05:34:28.611Z,85.96
2022-10-26T05:35:28.598Z,85.96
2022-10-26T05:36:28.578Z,85.44
2022-10-26T05:37:28.566Z,85.55
2022-10-26T05:38:28.559Z,85.96
2022-10-26T05:39:28.544Z,85.55
2022-10-26T05:40:28.545Z,85.34
2022-10-26T05:41:28.541Z,85.44
2022-10-26T05:42:28.509Z,85.55
2022-10-26T05:43:28.502Z,85.24
2022-10-26T05:44:28.508Z,85.24
2022-10-26T05:45:28.491Z,85.44
2022-10-26T05:46:28.465Z,85.03
2022-10-26T05:47:28.458Z,85.03
2022-10-26T05:48:28.445Z,85.03
2022-10-26T05:49:28.436Z,85.17
2022-10-26T05:50:28.435Z,85.99
2022-10-26T05:51:28.418Z,85.69
2022-10-26T05:52:28.406Z,85.89
2022-10-26T05:53:28.393Z,85.79
2022-10-26T05:54:28.379Z,85.58
2022-10-26T05:55:28.385Z,85.79
2022-10-26T05:56:28.360Z,85.79
2022-10-26T05:57:28.369Z,85.48
2022-10-26T05:58:28.351Z,85.48
2022-10-26T05:59:28.330Z,84.97
2022-10-26T06:00:28.417Z,84.77
2022-10-26T06:01:28.485Z,84.77
2022-10-26T06:02:28.392Z,84.77
2022-10-26T06:03:28.316Z,85.07
2022-10-26T06:04:28.271Z,84.66
2022-10-26T06:05:28.275Z,84.77
2022-10-26T06:06:28.250Z,85.17
2022-10-26T06:07:28.240Z,84.63
2022-10-26T06:08:28.237Z,84.63
2022-10-26T06:09:28.223Z,84.52
2022-10-26T06:10:28.301Z,84.72
2022-10-26T06:11:28.202Z,84.63
2022-10-26T06:12:28.189Z,84.11
2022-10-26T06:13:28.194Z,84.11
2022-10-26T06:14:28.164Z,84.63
2022-10-26T06:15:28.164Z,84.48
2022-10-26T06:16:28.142Z,85.44
2022-10-26T06:17:28.132Z,85.99
2022-10-26T06:18:28.120Z,86.51
2022-10-26T06:19:28.109Z,86.81
2022-10-26T06:20:28.219Z,87.77
2022-10-26T06:21:28.088Z,88.29
2022-10-26T06:22:28.077Z,88.86
2022-10-26T06:23:28.065Z,88.86
2022-10-26T06:24:28.051Z,87.90
2022-10-26T06:25:28.061Z,87.96
2022-10-26T06:26:28.045Z,87.30
2022-10-26T06:27:28.022Z,87.06
2022-10-26T06:28:28.113Z,86.65
2022-10-26T06:29:28.018Z,85.89
2022-10-26T06:30:28.129Z,84.42
2022-10-26T06:31:27.978Z,82.96
2022-10-26T06:32:27.985Z,81.86
2022-10-26T06:33:30.278Z,80.40
2022-10-26T06:34:27.946Z,79.95
2022-10-26T06:35:27.949Z,78.49
2022-10-26T06:36:27.926Z,77.53
2022-10-26T06:37:27.912Z,76.28
2022-10-26T06:38:27.900Z,76.45
2022-10-26T06:39:27.892Z,75.40
2022-10-26T06:40:27.898Z,74.75
2022-10-26T06:42:22.013Z,73.60
2022-10-26T06:43:22.000Z,72.55
2022-10-26T06:44:21.991Z,71.80
2022-10-26T06:45:22.001Z,71.16
2022-10-26T06:46:21.978Z,70.93
2022-10-26T06:47:23.604Z,70.12
2022-10-26T06:48:21.947Z,69.48
2022-10-26T06:49:21.947Z,69.48
2022-10-26T06:50:21.922Z,69.37
2022-10-26T06:51:21.926Z,69.07
2022-10-26T06:52:21.902Z,69.68
2022-10-26T06:53:21.894Z,69.57
2022-10-26T06:54:21.880Z,69.24
2022-10-26T06:55:21.881Z,69.04
2022-10-26T06:56:21.865Z,69.54
2022-10-26T06:57:21.852Z,68.53
2022-10-26T06:58:21.878Z,68.50
2022-10-26T06:59:21.837Z,67.66
2022-10-26T07:00:21.916Z,67.76
2022-10-26T07:01:22.021Z,66.92
2022-10-26T07:02:21.872Z,66.52
2022-10-26T07:03:21.784Z,66.92
2022-10-26T07:04:21.773Z,66.08
2022-10-26T07:05:21.779Z,66.18
2022-10-26T07:06:21.788Z,65.44
2022-10-26T07:07:21.747Z,64.61
2022-10-26T07:08:21.727Z,63.87
2022-10-26T07:09:21.722Z,62.96
2022-10-26T07:10:21.721Z,63.23
2022-10-26T07:11:21.702Z,62.93
2022-10-26T07:12:21.690Z,61.99
2022-10-26T07:13:21.676Z,62.19
2022-10-26T07:14:21.664Z,62.26
2022-10-26T07:15:21.668Z,61.96
2022-10-26T07:16:21.644Z,61.96
2022-10-26T07:17:21.650Z,61.23
2022-10-26T07:18:21.621Z,60.39
2022-10-26T07:19:21.613Z,60.36
2022-10-26T07:20:21.619Z,60.57
2022-10-26T07:21:21.599Z,60.06
2022-10-26T07:22:21.577Z,60.03
2022-10-26T07:23:21.623Z,59.60
2022-10-26T07:24:21.553Z,58.57
2022-10-26T07:25:21.556Z,58.44
2022-10-26T07:26:21.532Z,58.04
2022-10-26T07:27:21.527Z,57.51
2022-10-26T07:28:21.513Z,57.18
2022-10-26T07:29:21.503Z,57.15
2022-10-26T07:30:21.516Z,56.35
2022-10-26T07:31:21.503Z,56.02
2022-10-26T07:32:21.476Z,55.70
2022-10-26T07:33:21.476Z,55.60
2022-10-26T07:34:21.447Z,54.27
2022-10-26T07:35:21.466Z,53.74
2022-10-26T07:36:21.443Z,53.22
2022-10-26T07:37:21.417Z,53.74
2022-10-26T07:38:21.408Z,53.92
2022-10-26T07:39:21.396Z,53.52
2022-10-26T07:41:21.388Z,53.39
2022-10-26T07:42:21.372Z,53.49
2022-10-26T07:43:21.357Z,53.09
2022-10-26T07:44:21.343Z,53.49
2022-10-26T07:45:21.332Z,52.89
2022-10-26T07:46:21.333Z,52.89
2022-10-26T07:47:21.313Z,52.39
2022-10-26T07:48:21.302Z,52.47
2022-10-26T07:49:23.814Z,52.25
2022-10-26T07:50:21.279Z,51.94
2022-10-26T07:51:21.279Z,52.25
2022-10-26T07:52:21.258Z,52.67
2022-10-26T07:53:26.759Z,52.47
2022-10-26T07:54:22.249Z,53.07
2022-10-26T07:55:21.230Z,52.55
2022-10-26T07:56:21.231Z,53.04
2022-10-26T07:57:21.217Z,52.97
2022-10-26T07:58:21.205Z,53.69
2022-10-26T07:59:21.187Z,53.69
2022-10-26T08:00:21.193Z,54.44
2022-10-26T08:01:21.330Z,54.55
2022-10-26T08:02:21.156Z,54.67
2022-10-26T08:03:21.145Z,55.80
2022-10-26T08:04:21.136Z,55.30
2022-10-26T08:05:21.237Z,55.82
2022-10-26T08:06:21.113Z,57.18
2022-10-26T08:07:21.102Z,58.11
2022-10-26T08:08:21.094Z,57.91
2022-10-26T08:09:21.081Z,58.11
2022-10-26T08:10:21.150Z,58.34
2022-10-26T08:11:21.062Z,59.98
2022-10-26T08:12:21.048Z,60.53
2022-10-26T08:13:21.042Z,61.87
2022-10-26T08:14:21.030Z,62.10
2022-10-26T08:15:21.049Z,62.07
2022-10-26T08:16:21.007Z,62.18
2022-10-26T08:17:20.996Z,61.54
2022-10-26T08:18:20.986Z,61.01
2022-10-26T08:19:20.975Z,60.68
2022-10-26T08:20:21.102Z,60.98
2022-10-26T08:21:35.845Z,60.28
2022-10-26T08:22:21.991Z,60.28
2022-10-26T08:23:20.932Z,60.05
2022-10-26T08:24:20.923Z,60.15
2022-10-26T08:25:21.591Z,60.38
2022-10-26T08:26:20.909Z,61.79
2022-10-26T08:27:20.889Z,62.42
2022-10-26T08:28:20.876Z,62.65
2022-10-26T08:29:20.873Z,63.48
2022-10-26T08:30:21.064Z,63.28
2022-10-26T08:31:20.858Z,64.12
2022-10-26T08:32:20.836Z,64.25
2022-10-26T08:33:20.823Z,64.75
2022-10-26T08:34:20.820Z,65.39
2022-10-26T08:35:20.814Z,65.49
2022-10-26T08:36:20.804Z,65.72
2022-10-26T08:37:20.798Z,67.19
2022-10-26T08:38:20.781Z,67.57
2022-10-26T08:39:20.770Z,67.19
2022-10-26T08:40:20.807Z,67.47
2022-10-26T08:41:20.757Z,67.57
2022-10-26T08:42:20.727Z,67.47
2022-10-26T08:43:20.715Z,66.73
2022-10-26T08:44:20.704Z,66.50
2022-10-26T08:45:24.723Z,66.06
2022-10-26T08:46:21.698Z,65.46
2022-10-26T08:47:20.707Z,65.62
2022-10-26T08:48:20.664Z,64.72
2022-10-26T08:49:20.667Z,64.02
2022-10-26T08:50:20.694Z,63.99
2022-10-26T08:51:20.644Z,63.65
2022-10-26T08:52:20.622Z,63.32
2022-10-26T08:53:20.648Z,61.88
2022-10-26T08:54:20.596Z,62.49
2022-10-26T08:55:20.583Z,61.55
2022-10-26T08:56:20.586Z,60.22
2022-10-26T08:57:20.580Z,59.99
2022-10-26T08:58:20.577Z,59.19
2022-10-26T08:59:20.553Z,59.26
2022-10-26T09:00:20.555Z,58.53
2022-10-26T09:01:20.629Z,58.11
2022-10-26T09:02:20.524Z,57.70
2022-10-26T09:03:20.502Z,58.40
2022-10-26T09:04:20.486Z,58.40
2022-10-26T09:05:20.476Z,57.65
2022-10-26T09:06:20.473Z,57.24
2022-10-26T09:07:20.469Z,56.62
2022-10-26T09:08:20.442Z,55.36
2022-10-26T09:09:20.461Z,54.44
2022-10-26T09:10:20.520Z,54.39
2022-10-26T09:11:20.424Z,53.47
2022-10-26T09:12:20.401Z,52.42
2022-10-26T09:13:20.389Z,52.49
2022-10-26T09:14:20.383Z,51.77
2022-10-26T09:15:20.367Z,51.75
2022-10-26T09:16:20.369Z,51.45
2022-10-26T09:17:20.350Z,50.93
2022-10-26T09:18:20.339Z,50.58
2022-10-26T09:19:20.334Z,48.27
2022-10-26T09:20:20.339Z,49.66
2022-10-26T09:21:20.320Z,48.84
2022-10-26T09:22:20.301Z,48.72
2022-10-26T09:23:20.288Z,47.43
2022-10-26T09:24:20.276Z,47.21
2022-10-26T09:25:20.282Z,46.59
2022-10-26T09:26:20.268Z,46.89
2022-10-26T09:27:20.247Z,46.79
2022-10-26T09:28:20.237Z,46.86
2022-10-26T09:29:20.234Z,47.19
2022-10-26T09:30:20.227Z,46.69
2022-10-26T09:31:20.221Z,46.91
2022-10-26T09:32:20.214Z,46.98
2022-10-26T09:33:20.187Z,47.11
2022-10-26T09:34:20.179Z,46.71
2022-10-26T09:35:20.232Z,46.91
2022-10-26T09:36:20.181Z,46.98
2022-10-26T09:37:20.150Z,47.23
2022-10-26T09:38:20.162Z,47.53
2022-10-26T09:39:20.138Z,47.23
2022-10-26T09:40:20.132Z,48.00
2022-10-26T09:41:20.141Z,48.62
2022-10-26T09:42:20.098Z,48.40
2022-10-26T09:43:20.087Z,47.21
2022-10-26T09:44:20.098Z,47.28
2022-10-26T09:45:20.068Z,46.89
2022-10-26T09:46:20.068Z,46.79
2022-10-26T09:47:20.067Z,46.59
2022-10-26T09:48:20.040Z,46.77
2022-10-26T09:49:20.029Z,46.35
2022-10-26T09:50:20.027Z,46.55
2022-10-26T09:51:20.033Z,46.45
2022-10-26T09:52:20.000Z,46.15
2022-10-26T09:53:19.989Z,46.55
2022-10-26T09:54:19.997Z,45.73
2022-10-26T09:55:19.980Z,45.12
2022-10-26T09:56:20.245Z,45.31
2022-10-26T09:57:19.972Z,44.92
2022-10-26T09:58:19.949Z,45.01
2022-10-26T09:59:19.933Z,45.63
2022-10-26T10:00:20.059Z,46.35
2022-10-26T10:01:19.977Z,46.35
2022-10-26T10:02:19.974Z,46.17
2022-10-26T10:03:19.961Z,46.67
2022-10-26T10:04:19.889Z,46.86
2022-10-26T10:05:27.543Z,46.57
2022-10-26T10:06:20.875Z,46.97
2022-10-26T10:07:19.855Z,46.86
2022-10-26T10:08:19.848Z,46.86
2022-10-26T10:09:19.866Z,45.75
2022-10-26T10:10:19.830Z,46.77
2022-10-26T10:11:19.817Z,45.28
2022-10-26T10:12:19.820Z,45.85
2022-10-26T10:13:19.817Z,47.16
2022-10-26T10:14:19.807Z,47.33
2022-10-26T10:15:19.783Z,49.38
2022-10-26T10:16:19.776Z,50.75
2022-10-26T10:17:19.786Z,52.22
2022-10-26T10:18:19.768Z,53.47
2022-10-26T10:19:19.766Z,54.22
2022-10-26T10:20:19.742Z,54.61
2022-10-26T10:21:19.733Z,55.36
2022-10-26T10:22:19.718Z,56.92
2022-10-26T10:23:19.731Z,57.78
2022-10-26T10:24:19.698Z,58.30
2022-10-26T10:25:19.748Z,59.33
2022-10-26T10:26:19.687Z,59.77
2022-10-26T10:27:19.684Z,60.80
2022-10-26T10:29:19.671Z,62.76
2022-10-26T10:30:19.640Z,63.29
2022-10-26T10:31:19.642Z,63.82
2022-10-26T10:32:19.612Z,63.85
2022-10-26T10:33:19.601Z,65.09
2022-10-26T10:34:19.609Z,65.47
2022-10-26T10:35:19.591Z,65.62
2022-10-26T10:36:19.583Z,66.43
2022-10-26T10:37:19.557Z,66.03
2022-10-26T10:38:19.548Z,66.16
2022-10-26T10:39:19.589Z,66.97
2022-10-26T10:40:19.594Z,67.77
2022-10-26T10:41:19.532Z,67.40
2022-10-26T10:42:19.509Z,69.01
2022-10-26T10:43:19.492Z,68.61
2022-10-26T10:44:19.485Z,68.41
2022-10-26T10:45:19.491Z,68.54
2022-10-26T10:46:19.465Z,68.95
2022-10-26T10:47:19.462Z,68.85
2022-10-26T10:48:19.441Z,69.48
2022-10-26T10:49:19.433Z,69.59
2022-10-26T10:50:19.461Z,69.89
2022-10-26T10:51:19.407Z,70.29
2022-10-26T10:52:19.408Z,70.09
2022-10-26T10:53:19.437Z,70.09
2022-10-26T10:54:19.395Z,70.29
2022-10-26T10:55:19.367Z,70.83
2022-10-26T10:56:19.356Z,70.29
2022-10-26T10:57:19.357Z,70.19
2022-10-26T10:58:19.333Z,70.59
2022-10-26T10:59:19.323Z,71.00
2022-10-26T11:00:19.322Z,70.62
2022-10-26T11:01:19.440Z,70.19
2022-10-26T11:02:19.455Z,70.32
2022-10-26T11:03:23.332Z,70.19
2022-10-26T11:04:20.279Z,69.89
2022-10-26T11:05:22.050Z,70.39
2022-10-26T11:06:20.248Z,70.79
2022-10-26T11:07:19.249Z,71.10
2022-10-26T11:08:19.226Z,71.00
2022-10-26T11:09:19.215Z,70.83
2022-10-26T11:10:19.206Z,70.59
2022-10-26T11:11:19.195Z,71.10
2022-10-26T11:12:19.204Z,71.00
2022-10-26T11:13:19.215Z,69.79
2022-10-26T11:14:19.182Z,70.19
2022-10-26T11:15:19.151Z,69.99
2022-10-26T11:16:19.140Z,69.89
2022-10-26T11:17:19.168Z,70.29
2022-10-26T11:18:19.122Z,71.40
2022-10-26T11:19:19.107Z,70.69
2022-10-26T11:20:19.098Z,70.59
2022-10-26T11:21:19.090Z,71.40
2022-10-26T11:22:19.084Z,70.83
2022-10-26T11:23:19.063Z,70.62
2022-10-26T11:24:19.081Z,71.64
2022-10-26T11:25:19.040Z,72.04
2022-10-26T11:26:19.032Z,72.64
2022-10-26T11:27:19.042Z,72.95
2022-10-26T11:28:19.011Z,72.95
2022-10-26T11:29:19.039Z,71.33
2022-10-26T11:30:18.987Z,71.23
2022-10-26T11:31:18.976Z,71.33
2022-10-26T11:32:19.017Z,71.73
2022-10-26T11:33:18.972Z,72.00
2022-10-26T11:34:18.949Z,71.64
2022-10-26T11:35:18.933Z,71.80
2022-10-26T11:36:21.719Z,71.10
2022-10-26T11:37:18.921Z,70.69
2022-10-26T11:38:27.901Z,70.49
2022-10-26T11:39:19.892Z,70.59
2022-10-26T11:40:18.886Z,70.59
2022-10-26T11:41:18.885Z,70.29
2022-10-26T11:42:18.864Z,70.49
2022-10-26T11:43:18.844Z,71.00
2022-10-26T11:44:18.844Z,71.60
2022-10-26T11:45:18.837Z,70.69
2022-10-26T11:46:19.333Z,69.28
2022-10-26T11:47:18.802Z,69.79
2022-10-26T11:48:18.795Z,70.29
2022-10-26T11:49:18.798Z,69.89
2022-10-26T11:50:18.863Z,69.99
2022-10-26T11:51:18.774Z,70.09
2022-10-26T11:52:18.751Z,69.68
2022-10-26T11:53:18.740Z,71.20
2022-10-26T11:54:18.777Z,70.69
2022-10-26T11:55:18.722Z,71.06
2022-10-26T11:56:18.721Z,70.56
2022-10-26T11:57:18.696Z,70.56
2022-10-26T11:58:18.690Z,71.67
2022-10-26T11:59:18.672Z,70.66
2022-10-26T12:00:18.664Z,70.46
2022-10-26T12:01:18.761Z,69.85
2022-10-26T12:02:18.642Z,69.45
2022-10-26T12:03:18.636Z,69.85
2022-10-26T12:04:18.619Z,70.97
2022-10-26T12:05:18.627Z,70.15
2022-10-26T12:06:18.608Z,69.75
2022-10-26T12:07:18.586Z,69.65
2022-10-26T12:08:18.576Z,69.95
2022-10-26T12:09:18.580Z,69.25
2022-10-26T12:10:22.986Z,70.15
2022-10-26T12:11:19.553Z,69.65
2022-10-26T12:12:18.537Z,69.85
2022-10-26T12:13:18.524Z,69.45
2022-10-26T12:14:18.529Z,69.12
2022-10-26T12:15:18.501Z,68.71
2022-10-26T12:16:18.510Z,69.35
2022-10-26T12:17:18.487Z,69.65
2022-10-26T12:18:26.849Z,69.25
2022-10-26T12:19:19.509Z,69.55
2022-10-26T12:20:18.455Z,70.66
2022-10-26T12:21:18.573Z,70.66
2022-10-26T12:22:18.429Z,70.36
2022-10-26T12:23:28.098Z,70.12
2022-10-26T12:24:19.401Z,70.42
2022-10-26T12:25:18.393Z,71.37
2022-10-26T12:26:18.391Z,70.26
2022-10-26T12:27:18.385Z,70.06
2022-10-26T12:28:18.362Z,70.66
2022-10-26T12:29:18.347Z,71.17
2022-10-26T12:30:18.340Z,70.97
2022-10-26T12:31:18.374Z,70.26
2022-10-26T12:32:18.319Z,69.85
2022-10-26T12:33:18.302Z,69.85
2022-10-26T12:34:18.293Z,69.75
2022-10-26T12:35:18.290Z,69.45
2022-10-26T12:36:18.270Z,69.15
2022-10-26T12:37:18.278Z,69.62
2022-10-26T12:38:18.252Z,69.72
2022-10-26T12:39:18.237Z,69.92
2022-10-26T12:40:18.238Z,69.75
2022-10-26T12:41:18.216Z,69.95
2022-10-26T12:42:18.209Z,69.52
2022-10-26T12:43:18.205Z,69.55
2022-10-26T12:44:18.197Z,69.55
2022-10-26T12:45:18.183Z,69.32
2022-10-26T12:46:18.162Z,69.32
2022-10-26T12:47:18.151Z,69.52
2022-10-26T12:48:27.605Z,69.72
2022-10-26T12:49:19.127Z,69.45
2022-10-26T12:50:18.136Z,69.62
2022-10-26T12:51:18.107Z,68.91
2022-10-26T12:52:18.098Z,69.72
2022-10-26T12:53:18.104Z,69.32
2022-10-26T12:54:18.075Z,69.21
2022-10-26T12:55:18.082Z,69.42
2022-10-26T12:56:18.055Z,69.21
2022-10-26T12:57:18.041Z,68.71